Flight Track Log - Related Links

Times and Time Zones

All times are in EDT time to prevent confusion due to time zone crossing. See the GJS3710 flight status page for this flight to view local times or setup timezone preferences in your user account.

Time Position Orientation Groundspeed Altitude Reporting Facility
EDT Latitude Longitude Course Direction KTS MPH feet Rate Location/Type
Tue 06:05:14 PM 39.9167 -104.6833 63° Northeast 180 207 6,400  Level Denver TRACON
Tue 06:06:25 PM 39.9478 -104.6039 63° Northeast 233 268 8,200 1,398 Climbing Denver Center
Tue 06:07:27 PM 39.9322 -104.5047 102° East 267 307 9,500 1,500 Climbing Denver Center
Tue 06:08:29 PM 39.9039 -104.4036 110° East 290 334 11,300 1,597 Climbing Denver Center
Tue 06:09:31 PM 39.8883 -104.2817 99° East 342 394 12,800 1,902 Climbing Denver Center
Tue 06:10:32 PM 39.8917 -104.1417 88° East 359 413 15,200 1,951 Climbing Denver Center
Tue 06:11:34 PM 39.8972 -104.0072 87° East 372 428 16,800 1,645 Climbing Denver Center
Tue 06:12:36 PM 39.9606 -103.8803 57° Northeast 390 449 18,600 1,403 Climbing Denver Center
Tue 06:13:38 PM 40.0197 -103.7606 57° Northeast 398 458 19,700 871 Climbing Denver Center
Tue 06:14:40 PM 40.0456 -103.6144 77° East 397 457 20,400 823 Climbing Denver Center
Tue 06:15:42 PM 40.0697 -103.4731 77° East 414 476 21,400 1,210 Climbing Denver Center
Tue 06:16:44 PM 40.0961 -103.3083 78° East 414 476 22,900 1,306 Climbing Denver Center
Tue 06:17:46 PM 40.1197 -103.1653 78° East 419 482 24,100 1,210 Climbing Denver Center
Tue 06:18:48 PM 40.1458 -102.9942 79° East 429 494 25,400 1,152 Climbing Denver Center
Tue 06:19:51 PM 40.1711 -102.8433 78° East 439 505 26,500 1,065 Climbing Denver Center
Tue 06:20:52 PM 40.1936 -102.6919 79° East 443 510 27,600 1,073 Climbing Denver Center
Tue 06:21:54 PM 40.2208 -102.5117 79° East 452 520 28,700 1,016 Climbing Denver Center
Tue 06:22:56 PM 40.2444 -102.3556 79° East 458 527 29,700 1,065 Climbing Denver Center
Tue 06:23:58 PM 40.2733 -102.1731 78° East 458 527 30,900 624 Climbing Denver Center
Tue 06:25:01 PM 40.2967 -102.0153 79° East 461 531 31,000 576 Climbing Denver Center
Tue 06:26:03 PM 40.3253 -101.8283 79° East 468 539 32,100 1,113 Climbing Denver Center
Tue 06:27:05 PM 40.3481 -101.6708 79° East 463 533 33,300 1,161 Climbing Denver Center
Tue 06:28:07 PM 40.3747 -101.4903 79° East 452 520 34,500 919 Climbing Denver Center
Tue 06:29:09 PM 40.3958 -101.3356 80° East 450 518 35,200 677 Climbing Denver Center
Tue 06:30:11 PM 40.4369 -101.1594 73° East 454 522 35,900 629 Climbing Denver Center
Tue 06:31:13 PM 40.4878 -101.0150 65° Northeast 458 527 36,500 532 Climbing Denver Center
Tue 06:32:15 PM 40.5458 -100.8442 66° East 460 529 37,000 242 Climbing Denver Center
Tue 06:33:17 PM 40.5967 -100.6992 65° Northeast 461 531 37,000  Level Denver Center
Tue 06:34:19 PM 40.6553 -100.5303 65° Northeast 460 529 37,000  Level Denver Center
Tue 06:35:21 PM 40.7061 -100.3864 65° Northeast 458 527 37,000  Level Denver Center
Tue 06:36:23 PM 40.7633 -100.2167 66° East 457 526 37,000  Level Denver Center
Tue 06:37:25 PM 40.8131 -100.0714 66° East 456 525 37,000  Level Denver Center
Tue 06:38:27 PM 40.8711 -99.9006 66° East 457 526 37,000  Level Denver Center
Tue 06:39:29 PM 40.9228 -99.7461 66° East 462 532 37,000  Level Denver Center
Tue 06:40:31 PM 40.9747 -99.5892 66° East 465 535 37,000  Level Denver Center
Tue 06:41:33 PM 41.0272 -99.4319 66° East 466 536 37,000  Level Denver Center
Tue 06:42:35 PM 41.0794 -99.2739 66° East 467 537 37,000  Level Denver Center
Tue 06:43:37 PM 41.1411 -99.0844 67° East 466 536 37,000  Level Denver Center
Tue 06:44:38 PM 41.1936 -98.9228 67° East 466 536 37,000  Level Denver Center
Tue 06:45:42 PM 41.2433 -98.7819 65° Northeast 478 550 37,000  Level Minneapolis Center
Tue 06:46:44 PM 41.3011 -98.5911 68° East 471 542 37,000  Level Minneapolis Center
Tue 06:47:46 PM 41.3506 -98.4356 67° East 465 535 37,000  Level Minneapolis Center
Tue 06:48:48 PM 41.3978 -98.2711 69° East 472 543 37,000  Level Minneapolis Center
Tue 06:49:50 PM 41.4367 -98.1025 73° East 471 542 37,000  Level Minneapolis Center
Tue 06:50:52 PM 41.4764 -97.9350 72° East 474 545 37,000  Level Minneapolis Center
Tue 06:51:54 PM 41.5167 -97.7667 72° East 476 548 37,000  Level Minneapolis Center
Tue 06:52:56 PM 41.5636 -97.5644 73° East 475 547 37,000  Level Minneapolis Center
Tue 06:53:58 PM 41.6031 -97.3983 72° East 472 543 37,000  Level Minneapolis Center
Tue 06:55:00 PM 41.6408 -97.2303 73° East 472 543 37,000  Level Minneapolis Center
Tue 06:56:15 PM 41.6875 -97.0267 73° East 476 548 37,000  Level Minneapolis Center
Tue 06:57:17 PM 41.7272 -96.8556 73° East 478 550 37,000  Level Minneapolis Center
Tue 06:58:19 PM 41.7642 -96.6850 74° East 477 549 37,000  Level Minneapolis Center
Tue 06:59:20 PM 41.7956 -96.5481 73° East 477 549 37,000  Level Minneapolis Center
Tue 07:00:22 PM 41.8403 -96.3417 74° East 481 554 37,000  Level Minneapolis Center
Tue 07:01:24 PM 41.8858 -96.1350 73° East 479 551 37,000  Level Minneapolis Center
Tue 07:02:26 PM 41.9239 -95.9617 74° East 479 551 37,000  Level Minneapolis Center
Tue 07:03:28 PM 41.9614 -95.7864 74° East 483 556 37,000  Level Minneapolis Center
Tue 07:04:30 PM 41.9908 -95.6483 74° East 482 555 37,000  Level Minneapolis Center
Tue 07:05:32 PM 42.0353 -95.4367 74° East 488 562 37,000  Level Minneapolis Center
Tue 07:06:34 PM 42.0719 -95.2617 74° East 486 559 37,000  Level Minneapolis Center
Tue 07:07:36 PM 42.1092 -95.0844 74° East 490 564 37,000  Level Minneapolis Center
Tue 07:08:38 PM 42.1519 -94.8742 75° East 487 560 37,000  Level Minneapolis Center
Tue 07:09:40 PM 42.1881 -94.6981 74° East 487 560 37,000  Level Minneapolis Center
Tue 07:10:42 PM 42.2233 -94.5208 75° East 489 563 37,000  Level Minneapolis Center
Tue 07:11:44 PM 42.2592 -94.3436 75° East 490 564 37,000  Level Minneapolis Center
Tue 07:12:45 PM 42.2928 -94.1808 74° East 494 568 37,000  Level Minneapolis Center
Tue 07:13:47 PM 42.3353 -93.9661 75° East 496 571 37,000  Level Minneapolis Center
Tue 07:14:49 PM 42.3689 -93.7897 75° East 492 566 37,000  Level Minneapolis Center
Tue 07:16:03 PM 42.4100 -93.5769 75° East 492 566 37,000  Level Minneapolis Center
Tue 07:17:05 PM 42.4442 -93.3997 75° East 492 566 37,000  Level Minneapolis Center
Tue 07:18:20 PM 42.4914 -93.1508 75° East 493 567 37,000 -88 Level Minneapolis Center
Tue 07:19:21 PM 42.5250 -92.9725 76° East 493 567 36,800 -439 Descending Minneapolis Center
Tue 07:20:23 PM 42.5578 -92.7947 76° East 493 567 36,100 -677 Descending Minneapolis Center
Tue 07:21:25 PM 42.5903 -92.6183 76° East 488 562 35,400 -677 Descending Minneapolis Center
Tue 07:22:27 PM 42.6242 -92.4367 76° East 498 573 34,700 -829 Descending Minneapolis Center
Tue 07:23:28 PM 42.6561 -92.2567 76° East 498 573 33,700 -1,788 Descending Minneapolis Center
Tue 07:25:55 PM 42.7375 -91.7933 76° East 494 568 28,500 -2,029 Descending Chicago Center
Tue 07:26:58 PM 42.7689 -91.6194 76° East 486 559 26,600 -1,776 Descending Minneapolis Center
Tue 07:28:00 PM 42.8011 -91.4297 77° East 477 549 24,800 -1,707 Descending Minneapolis Center
Tue 07:29:01 PM 42.8306 -91.2600 77° East 470 541 23,100 -1,805 Descending Chicago Center
Tue 07:30:03 PM 42.8589 -91.0925 77° East 453 521 21,100 -1,887 Descending Chicago Center
Tue 07:31:05 PM 42.8858 -90.9333 77° East 438 504 19,200 -2,177 Descending Chicago Center
Tue 07:32:07 PM 42.9158 -90.7414 78° East 434 499 16,600 -2,226 Descending Minneapolis Center
Tue 07:33:09 PM 42.9414 -90.5858 77° East 428 493 14,600 -1,790 Descending Minneapolis Center
Tue 07:34:11 PM 42.9650 -90.4372 78° East 412 474 12,900 -1,403 Descending Minneapolis Center
Tue 07:35:13 PM 42.9914 -90.2903 76° East 406 467 11,700 -871 Descending Chicago Center
Tue 07:36:15 PM 43.0156 -90.1378 78° East 414 476 11,100 -290 Descending Chicago Center
Tue 07:37:17 PM 43.0431 -89.9625 78° East 397 457 11,100 -242 Level Chicago Center
Tue 07:38:19 PM 43.0633 -89.8281 78° East 383 441 10,600 -1,161 Descending Chicago Center
Tue 07:39:21 PM 43.0814 -89.7078 78° East 328 377 8,700 -2,323 Descending Chicago Center
Tue 07:40:23 PM 43.1036 -89.5653 78° East 325 374 5,800 -2,323 Descending Chicago Center
Tue 07:41:25 PM 43.1456 -89.4706 59° Northeast 303 349 3,900 -1,258 Descending Chicago Center
Tue 07:42:27 PM 43.2081 -89.4136 34° Northeast 282 325 3,200 -677 Descending Chicago Center
Tue 07:43:29 PM 43.2331 -89.3575 59° Northeast 217 250 2,500 -629 Descending Chicago Center
Tue 07:44:31 PM 43.1997 -89.3381 157° South 162 186 1,900 -581 Descending Chicago Center

Login

Don't have an account? Register now (free) for customized features, flight alerts, and more!